Time;durP1;ratioP1;P1;durP2;ratioP2;P2;SDS_P1;SDS_P2;PMS_P1;PMS_P2;Temp;Humidity;BMP_temperature;BMP_pressure;BME280_temperature;BME280_humidity;BME280_pressure;Samples;Min_cycle;Max_cycle;Signal;HPM_P1;HPM_P2
2023/10/16 00:00:32;;;;;;;;;;;7.30;99.90;;;;;;5094668;28;19976;-31
2023/10/16 00:03:00;;;;;;;;;;;7.30;99.90;;;;;;5112709;28;19924;-31
2023/10/16 00:05:31;;;;;;;;;;;7.30;99.90;;;;;;5094158;28;19976;-31
2023/10/16 00:08:00;;;;;;;;;;;7.30;99.90;;;;;;5094719;28;20621;-31
2023/10/16 00:10:27;;;;;;;;;;;7.30;99.90;;;;;;5094519;28;20004;-33
2023/10/16 00:12:53;;;;;;;;;;;7.30;99.90;;;;;;5112181;28;20276;-31
2023/10/16 00:15:20;;;;;;;;;;;7.30;99.90;;;;;;5096645;28;19924;-32
2023/10/16 00:17:49;;;;;;;;;;;7.30;99.90;;;;;;5098796;28;19924;-33
2023/10/16 00:20:18;;;;;;;;;;;7.30;99.90;;;;;;5097657;28;19928;-31
2023/10/16 00:22:45;;;;;;;;;;;7.30;99.90;;;;;;5116216;28;19923;-31
2023/10/16 00:25:15;;;;;;;;;;;7.30;99.90;;;;;;5116813;28;19924;-32
2023/10/16 00:27:42;;;;;;;;;;;7.30;99.90;;;;;;5098463;28;19923;-32
2023/10/16 00:30:09;;;;;;;;;;;7.30;99.90;;;;;;5097770;28;19924;-32
2023/10/16 00:32:36;;;;;;;;;;;7.30;99.90;;;;;;5115880;28;19928;-32
2023/10/16 00:35:03;;;;;;;;;;;7.30;99.90;;;;;;5098306;28;19931;-31
2023/10/16 00:37:32;;;;;;;;;;;7.30;99.90;;;;;;5116151;28;20435;-31
2023/10/16 00:40:00;;;;;;;;;;;7.40;99.90;;;;;;5097685;28;20006;-32
2023/10/16 00:42:28;;;;;;;;;;;7.30;99.90;;;;;;5097967;28;19961;-32
2023/10/16 00:44:56;;;;;;;;;;;7.30;99.90;;;;;;5096827;28;20350;-31
2023/10/16 00:47:24;;;;;;;;;;;7.30;99.90;;;;;;5114000;28;19924;-31
2023/10/16 00:49:50;;;;;;;;;;;7.30;99.90;;;;;;5097069;28;19975;-33
2023/10/16 00:52:18;;;;;;;;;;;7.30;99.90;;;;;;5097831;28;19924;-32
2023/10/16 00:54:46;;;;;;;;;;;7.30;99.90;;;;;;5097867;28;19923;-32
2023/10/16 00:57:13;;;;;;;;;;;7.40;99.90;;;;;;5097748;28;19968;-31
2023/10/16 00:59:41;;;;;;;;;;;7.30;99.90;;;;;;5095022;28;19994;-31
2023/10/16 01:02:14;;;;;;;;;;;7.40;99.90;;;;;;5114986;28;19924;-31
2023/10/16 01:04:41;;;;;;;;;;;7.40;99.90;;;;;;5115033;28;19930;-31
2023/10/16 01:07:09;;;;;;;;;;;7.30;99.90;;;;;;5097842;28;19934;-31
2023/10/16 01:09:35;;;;;;;;;;;7.40;99.90;;;;;;5096738;28;19924;-31
2023/10/16 01:12:07;;;;;;;;;;;7.40;99.90;;;;;;5097710;28;19924;-31
2023/10/16 01:14:34;;;;;;;;;;;7.40;99.90;;;;;;5096548;28;20364;-32
2023/10/16 01:17:02;;;;;;;;;;;7.50;99.90;;;;;;5095989;28;19928;-31
2023/10/16 01:19:29;;;;;;;;;;;7.40;99.90;;;;;;5096348;28;20033;-32
2023/10/16 01:21:58;;;;;;;;;;;7.40;99.90;;;;;;5113128;28;19923;-32
2023/10/16 01:24:27;;;;;;;;;;;7.40;99.90;;;;;;5096594;28;19930;-31
2023/10/16 01:26:59;;;;;;;;;;;7.50;99.90;;;;;;5113288;28;19950;-31
2023/10/16 01:29:25;;;;;;;;;;;7.60;99.90;;;;;;5095544;28;19985;-31
2023/10/16 01:31:52;;;;;;;;;;;7.50;99.90;;;;;;5114988;28;19924;-32
2023/10/16 01:34:22;;;;;;;;;;;7.50;99.90;;;;;;5115437;28;19924;-32
2023/10/16 01:36:51;;;;;;;;;;;7.50;99.90;;;;;;5114424;28;19924;-33
2023/10/16 01:42:09;;;;;;;;;;;7.60;99.90;;;;;;5090275;28;19972;-35
2023/10/16 01:44:36;;;;;;;;;;;7.60;99.90;;;;;;5114633;28;19981;-32
2023/10/16 01:47:03;;;;;;;;;;;7.60;99.90;;;;;;5115166;28;20333;-32
2023/10/16 01:49:30;;;;;;;;;;;7.60;99.90;;;;;;5113618;28;19930;-33
2023/10/16 01:51:56;;;;;;;;;;;7.60;99.90;;;;;;5114931;28;20387;-32
2023/10/16 01:54:23;;;;;;;;;;;7.70;99.90;;;;;;5114829;28;20023;-35
2023/10/16 01:56:50;;;;;;;;;;;7.70;99.90;;;;;;5096077;28;19994;-32
2023/10/16 01:59:21;;;;;;;;;;;7.70;99.90;;;;;;5095875;28;20378;-32
2023/10/16 02:01:47;;;;;;;;;;;7.70;99.90;;;;;;5095587;28;19930;-32
2023/10/16 02:04:14;;;;;;;;;;;7.70;99.90;;;;;;5114762;28;19977;-32
2023/10/16 02:06:40;;;;;;;;;;;7.80;99.90;;;;;;5114564;28;19928;-31
2023/10/16 02:09:13;;;;;;;;;;;7.70;99.90;;;;;;5089203;28;20390;-31
2023/10/16 02:11:40;;;;;;;;;;;7.80;99.90;;;;;;5082684;28;19960;-32
2023/10/16 02:14:07;;;;;;;;;;;7.80;99.90;;;;;;5114419;28;19931;-31
2023/10/16 02:16:37;;;;;;;;;;;7.80;99.90;;;;;;5095287;28;19923;-32
2023/10/16 02:19:05;;;;;;;;;;;7.80;99.90;;;;;;5112508;28;19979;-32
2023/10/16 02:21:32;;;;;;;;;;;7.70;99.90;;;;;;5091743;28;20389;-32
2023/10/16 02:24:03;;;;;;;;;;;7.70;99.90;;;;;;5093231;28;19924;-34
2023/10/16 02:26:30;;;;;;;;;;;7.70;99.90;;;;;;5096098;28;20375;-31
2023/10/16 02:29:00;;;;;;;;;;;7.70;99.90;;;;;;5094833;28;19924;-32
2023/10/16 02:31:29;;;;;;;;;;;7.70;99.90;;;;;;5095986;28;20023;-32
2023/10/16 02:34:12;;;;;;;;;;;7.70;99.90;;;;;;5095848;28;19953;-32
2023/10/16 02:36:39;;;;;;;;;;;7.70;99.90;;;;;;5093593;28;19950;-31
2023/10/16 02:39:08;;;;;;;;;;;7.70;99.90;;;;;;5075207;28;20407;-31
2023/10/16 02:41:34;;;;;;;;;;;7.80;99.90;;;;;;5078238;28;20394;-32
2023/10/16 02:44:01;;;;;;;;;;;7.70;99.90;;;;;;5095100;28;19979;-31
2023/10/16 02:46:28;;;;;;;;;;;7.70;99.90;;;;;;5094804;28;20294;-35
2023/10/16 02:48:55;;;;;;;;;;;7.70;99.90;;;;;;5095657;28;20387;-32
2023/10/16 02:51:23;;;;;;;;;;;7.70;99.90;;;;;;5095688;28;19931;-31
2023/10/16 02:53:51;;;;;;;;;;;7.70;99.90;;;;;;5094878;28;19962;-31
2023/10/16 02:56:17;;;;;;;;;;;7.60;99.90;;;;;;5095426;28;20294;-32
2023/10/16 02:58:46;;;;;;;;;;;7.60;99.90;;;;;;5113683;28;19994;-32
2023/10/16 03:01:18;;;;;;;;;;;7.60;99.90;;;;;;5095215;28;20291;-31
2023/10/16 03:03:45;;;;;;;;;;;7.50;99.90;;;;;;5094344;28;20553;-31
2023/10/16 03:06:11;;;;;;;;;;;7.50;99.90;;;;;;5094427;28;19931;-32
2023/10/16 03:08:39;;;;;;;;;;;7.50;99.90;;;;;;5090926;28;19976;-32
2023/10/16 03:11:07;;;;;;;;;;;7.50;99.90;;;;;;5081690;28;19986;-32
2023/10/16 03:13:35;;;;;;;;;;;7.50;99.90;;;;;;5111620;28;20033;-32
2023/10/16 03:16:07;;;;;;;;;;;7.40;99.90;;;;;;5094359;28;19931;-32
2023/10/16 03:18:34;;;;;;;;;;;7.40;99.90;;;;;;5094634;28;20015;-31
2023/10/16 03:21:07;;;;;;;;;;;7.40;99.90;;;;;;5094126;28;19999;-32
2023/10/16 03:23:34;;;;;;;;;;;7.40;99.90;;;;;;5092422;28;19951;-32
2023/10/16 03:26:02;;;;;;;;;;;7.30;99.90;;;;;;5094007;28;20022;-32
2023/10/16 03:28:29;;;;;;;;;;;7.20;99.90;;;;;;5093965;28;20019;-31
2023/10/16 03:30:59;;;;;;;;;;;7.30;99.90;;;;;;5091698;28;19923;-32
2023/10/16 03:33:27;;;;;;;;;;;7.40;99.90;;;;;;5110770;28;19924;-32
2023/10/16 03:35:53;;;;;;;;;;;7.30;99.90;;;;;;5093732;28;19963;-32
2023/10/16 03:38:26;;;;;;;;;;;7.30;99.90;;;;;;5085260;28;19928;-32
2023/10/16 03:40:54;;;;;;;;;;;7.40;99.90;;;;;;5099351;28;19936;-32
2023/10/16 03:43:23;;;;;;;;;;;7.40;99.90;;;;;;5088969;28;19924;-31
2023/10/16 03:45:50;;;;;;;;;;;7.40;99.90;;;;;;5087208;28;20007;-32
2023/10/16 03:48:19;;;;;;;;;;;7.40;99.90;;;;;;5091402;28;19927;-32
2023/10/16 03:50:46;;;;;;;;;;;7.40;99.90;;;;;;5093976;28;19923;-31
2023/10/16 03:53:14;;;;;;;;;;;7.40;99.90;;;;;;5094102;28;19923;-31
2023/10/16 03:55:43;;;;;;;;;;;7.40;99.90;;;;;;5110218;28;19928;-33
2023/10/16 03:58:10;;;;;;;;;;;7.40;99.90;;;;;;5094193;28;20311;-32
2023/10/16 04:00:50;;;;;;;;;;;7.50;99.90;;;;;;5093768;28;19924;-32
2023/10/16 04:03:18;;;;;;;;;;;7.50;99.90;;;;;;5110726;28;20291;-32
2023/10/16 04:05:46;;;;;;;;;;;7.50;99.90;;;;;;5111736;28;19924;-32
2023/10/16 04:08:13;;;;;;;;;;;7.60;99.90;;;;;;5111862;28;20311;-31
2023/10/16 04:10:43;;;;;;;;;;;7.60;99.90;;;;;;5101421;28;19950;-32
2023/10/16 04:13:11;;;;;;;;;;;7.60;99.90;;;;;;5101320;28;20003;-31
2023/10/16 04:15:59;;;;;;;;;;;7.60;99.90;;;;;;5102905;28;20179;-32
2023/10/16 04:18:28;;;;;;;;;;;7.60;99.90;;;;;;5089355;28;20108;-34
2023/10/16 04:21:08;;;;;;;;;;;7.60;99.90;;;;;;5086932;28;19924;-31
2023/10/16 04:23:37;;;;;;;;;;;7.70;99.90;;;;;;5102120;28;19924;-32
2023/10/16 04:31:44;;;;;;;;;;;7.70;99.90;;;;;;5108745;28;20019;-32
2023/10/16 04:34:24;;;;;;;;;;;7.80;99.90;;;;;;5093321;28;19946;-32
2023/10/16 04:36:53;;;;;;;;;;;7.80;99.90;;;;;;5094048;28;19924;-32
2023/10/16 04:45:00;;;;;;;;;;;7.80;99.90;;;;;;5111640;28;19927;-32
2023/10/16 04:47:41;;;;;;;;;;;7.80;99.90;;;;;;5094120;28;19974;-32
2023/10/16 04:50:09;;;;;;;;;;;7.90;99.90;;;;;;5102640;28;19924;-33
2023/10/16 04:55:52;;;;;;;;;;;7.90;99.90;;;;;;5091889;28;19924;-33
2023/10/16 04:58:27;;;;;;;;;;;7.90;99.90;;;;;;5091502;28;19962;-32
2023/10/16 05:01:17;;;;;;;;;;;7.90;99.90;;;;;;5098745;28;20030;-31
2023/10/16 05:04:13;;;;;;;;;;;7.90;99.90;;;;;;5090994;28;19924;-31
2023/10/16 05:06:38;;;;;;;;;;;7.90;99.90;;;;;;5094791;28;19924;-31
2023/10/16 05:15:20;;;;;;;;;;;8.00;99.90;;;;;;5077231;28;19975;-31
2023/10/16 05:17:21;;;;;;;;;;;7.90;99.90;;;;;;5095008;28;19961;-33
2023/10/16 05:19:53;;;;;;;;;;;7.90;99.90;;;;;;5111077;28;20383;-31
2023/10/16 06:14:34;;;;;;;;;;;8.20;99.90;;;;;;5105888;28;19940;-32
2023/10/16 06:17:01;;;;;;;;;;;8.20;99.90;;;;;;5107521;28;19969;-33
2023/10/16 06:19:28;;;;;;;;;;;8.20;99.90;;;;;;5093537;28;19980;-31
2023/10/16 06:21:57;;;;;;;;;;;8.20;99.90;;;;;;5113951;28;19976;-31
2023/10/16 06:24:32;;;;;;;;;;;8.20;99.90;;;;;;5094829;28;20020;-32
2023/10/16 06:27:00;;;;;;;;;;;8.10;99.90;;;;;;5096148;28;19967;-33
2023/10/16 06:29:34;;;;;;;;;;;8.20;99.90;;;;;;5096001;28;19927;-33
2023/10/16 06:32:06;;;;;;;;;;;8.20;99.90;;;;;;5092354;28;19928;-31
2023/10/16 06:34:33;;;;;;;;;;;8.30;99.90;;;;;;5095898;28;20006;-31
2023/10/16 06:37:05;;;;;;;;;;;8.30;99.90;;;;;;5096005;28;19962;-32
2023/10/16 06:39:36;;;;;;;;;;;8.30;99.90;;;;;;5095741;28;19965;-31
2023/10/16 06:42:03;;;;;;;;;;;8.30;99.90;;;;;;5110663;28;19932;-32
2023/10/16 06:44:33;;;;;;;;;;;8.40;99.90;;;;;;5113390;28;19928;-32
2023/10/16 06:47:00;;;;;;;;;;;8.40;99.90;;;;;;5095573;28;20018;-34
2023/10/16 06:49:28;;;;;;;;;;;8.40;99.90;;;;;;5093800;28;19985;-32
2023/10/16 06:51:56;;;;;;;;;;;8.40;99.90;;;;;;5098202;28;19928;-31
2023/10/16 06:54:23;;;;;;;;;;;8.50;99.90;;;;;;5112389;28;20445;-31
2023/10/16 06:56:51;;;;;;;;;;;8.50;99.90;;;;;;5094950;28;19964;-32
2023/10/16 06:59:18;;;;;;;;;;;8.50;99.90;;;;;;5095396;28;20147;-32
2023/10/16 07:01:46;;;;;;;;;;;8.60;99.90;;;;;;5112541;28;19927;-32
2023/10/16 07:04:14;;;;;;;;;;;8.60;99.90;;;;;;5095530;28;19931;-32
2023/10/16 07:06:42;;;;;;;;;;;8.60;99.90;;;;;;5110890;28;19923;-31
2023/10/16 07:09:08;;;;;;;;;;;8.70;99.90;;;;;;5092234;28;19932;-31
2023/10/16 07:11:35;;;;;;;;;;;8.70;99.90;;;;;;5111382;28;19923;-33
2023/10/16 07:14:05;;;;;;;;;;;8.70;99.90;;;;;;5113115;28;19924;-32
2023/10/16 07:16:33;;;;;;;;;;;8.70;99.90;;;;;;5095006;28;19924;-32
2023/10/16 07:19:00;;;;;;;;;;;8.80;99.90;;;;;;5113322;28;20064;-32
2023/10/16 07:21:27;;;;;;;;;;;8.80;99.90;;;;;;5113753;28;19988;-32
2023/10/16 07:23:54;;;;;;;;;;;8.80;99.90;;;;;;5093418;28;20031;-31
2023/10/16 07:26:24;;;;;;;;;;;8.80;99.90;;;;;;5112411;28;20053;-32
2023/10/16 07:28:51;;;;;;;;;;;8.90;99.90;;;;;;5094980;28;19931;-31
2023/10/16 07:31:19;;;;;;;;;;;8.90;99.90;;;;;;5095083;28;19928;-31
2023/10/16 07:33:50;;;;;;;;;;;8.90;99.90;;;;;;5113204;28;20369;-33
2023/10/16 07:36:17;;;;;;;;;;;9.00;99.90;;;;;;5087757;28;19950;-32
2023/10/16 07:38:44;;;;;;;;;;;9.00;99.90;;;;;;5102725;28;19924;-33
2023/10/16 07:41:12;;;;;;;;;;;9.10;99.90;;;;;;5094092;28;20423;-31
2023/10/16 07:43:39;;;;;;;;;;;9.10;99.90;;;;;;5093972;28;19962;-32
2023/10/16 07:46:19;;;;;;;;;;;9.20;99.90;;;;;;5112200;28;20044;-31
2023/10/16 07:48:50;;;;;;;;;;;9.20;99.90;;;;;;5110166;28;20029;-32
2023/10/16 07:51:19;;;;;;;;;;;9.30;99.90;;;;;;5112158;28;19979;-31
2023/10/16 07:53:48;;;;;;;;;;;9.40;99.90;;;;;;5109778;28;19924;-32
2023/10/16 07:56:25;;;;;;;;;;;9.40;99.90;;;;;;5113008;28;20064;-31
2023/10/16 07:58:54;;;;;;;;;;;9.40;99.90;;;;;;5119026;28;20283;-32
2023/10/16 08:01:36;;;;;;;;;;;9.50;99.90;;;;;;5091914;28;19924;-31
2023/10/16 08:04:06;;;;;;;;;;;9.50;99.90;;;;;;5093331;28;20482;-32
2023/10/16 08:06:37;;;;;;;;;;;9.50;99.90;;;;;;5089003;28;19924;-33
2023/10/16 08:11:56;;;;;;;;;;;9.70;99.90;;;;;;5087564;28;19954;-31
2023/10/16 08:14:23;;;;;;;;;;;9.70;99.90;;;;;;5094560;28;20429;-32
2023/10/16 08:17:04;;;;;;;;;;;9.80;99.90;;;;;;5093989;28;19949;-32
2023/10/16 08:19:34;;;;;;;;;;;9.80;99.90;;;;;;5112551;28;19958;-33
2023/10/16 08:22:03;;;;;;;;;;;9.90;99.90;;;;;;5093600;28;19930;-32
2023/10/16 08:24:29;;;;;;;;;;;10.00;99.90;;;;;;5092270;28;20413;-31
2023/10/16 08:27:08;;;;;;;;;;;10.10;99.90;;;;;;5113658;28;19924;-32
2023/10/16 08:29:37;;;;;;;;;;;10.10;99.90;;;;;;5112634;28;20376;-32
2023/10/16 08:34:46;;;;;;;;;;;10.20;99.90;;;;;;5092234;28;20031;-32
2023/10/16 08:37:13;;;;;;;;;;;10.30;99.90;;;;;;5084356;28;19928;-32
2023/10/16 08:39:47;;;;;;;;;;;10.30;99.90;;;;;;5092440;28;19982;-33
2023/10/16 08:42:18;;;;;;;;;;;10.40;99.90;;;;;;5115742;28;19924;-33
2023/10/16 08:44:45;;;;;;;;;;;10.50;99.90;;;;;;5095763;28;19962;-32
2023/10/16 08:47:16;;;;;;;;;;;10.70;99.90;;;;;;5097172;28;20539;-32
2023/10/16 08:49:52;;;;;;;;;;;10.70;99.90;;;;;;5098368;28;19924;-32
2023/10/16 08:52:22;;;;;;;;;;;10.90;99.90;;;;;;5114425;28;19970;-32
2023/10/16 08:55:02;;;;;;;;;;;11.00;99.90;;;;;;5097328;28;19924;-31
2023/10/16 08:57:29;;;;;;;;;;;11.10;99.90;;;;;;5115921;28;19924;-32
2023/10/16 08:59:58;;;;;;;;;;;11.10;99.90;;;;;;5105724;28;20318;-31
2023/10/16 09:02:25;;;;;;;;;;;11.20;99.90;;;;;;5115871;28;19953;-32
2023/10/16 09:04:54;;;;;;;;;;;11.20;99.90;;;;;;5114493;28;19930;-33
2023/10/16 09:07:24;;;;;;;;;;;11.30;99.90;;;;;;5112458;28;19958;-32
2023/10/16 09:09:53;;;;;;;;;;;11.30;99.90;;;;;;5115192;28;20359;-32
2023/10/16 09:12:26;;;;;;;;;;;11.30;99.90;;;;;;5095640;28;19924;-32
2023/10/16 09:14:53;;;;;;;;;;;11.30;99.90;;;;;;5096239;28;19924;-32
2023/10/16 09:17:20;;;;;;;;;;;11.30;99.90;;;;;;5095906;28;19938;-33
2023/10/16 09:20:05;;;;;;;;;;;11.30;99.90;;;;;;5114450;28;19923;-32
2023/10/16 09:22:33;;;;;;;;;;;11.30;99.90;;;;;;5096774;28;20268;-32
2023/10/16 09:24:59;;;;;;;;;;;11.30;99.90;;;;;;5096678;28;20382;-31
2023/10/16 09:27:30;;;;;;;;;;;11.30;99.90;;;;;;5097508;28;19924;-34
2023/10/16 09:29:58;;;;;;;;;;;11.30;99.90;;;;;;5115502;28;20340;-32
2023/10/16 09:32:27;;;;;;;;;;;11.30;99.90;;;;;;5112535;28;19997;-32
2023/10/16 09:34:54;;;;;;;;;;;11.30;99.90;;;;;;5113567;27;20386;-33
2023/10/16 09:37:24;;;;;;;;;;;11.40;99.90;;;;;;5097125;28;19924;-32
2023/10/16 09:39:54;;;;;;;;;;;11.40;99.90;;;;;;5097251;28;19924;-32
2023/10/16 09:42:25;;;;;;;;;;;11.50;99.90;;;;;;5097178;28;19924;-32
2023/10/16 09:44:59;;;;;;;;;;;11.50;99.90;;;;;;5095859;28;19957;-32
2023/10/16 09:47:26;;;;;;;;;;;11.60;99.90;;;;;;5114714;28;20019;-33
2023/10/16 09:49:52;;;;;;;;;;;11.60;99.90;;;;;;5096886;28;19974;-32
2023/10/16 09:52:20;;;;;;;;;;;11.60;99.90;;;;;;5115020;28;20023;-32
2023/10/16 09:54:48;;;;;;;;;;;11.60;99.90;;;;;;5096940;28;19981;-31
2023/10/16 09:57:18;;;;;;;;;;;11.70;99.90;;;;;;5096824;28;19931;-32
2023/10/16 09:59:45;;;;;;;;;;;11.80;99.90;;;;;;5096555;28;19966;-33
2023/10/16 10:02:16;;;;;;;;;;;11.90;99.90;;;;;;5101304;28;19958;-32
2023/10/16 10:04:44;;;;;;;;;;;12.00;99.90;;;;;;5096566;28;20121;-31
2023/10/16 10:07:13;;;;;;;;;;;12.10;99.90;;;;;;5096619;28;20210;-32
2023/10/16 10:09:44;;;;;;;;;;;12.20;99.90;;;;;;5114548;28;19978;-33
2023/10/16 10:12:22;;;;;;;;;;;12.30;99.90;;;;;;5096206;28;20004;-34
2023/10/16 10:15:01;;;;;;;;;;;12.30;99.90;;;;;;5113903;28;19975;-32
2023/10/16 10:17:27;;;;;;;;;;;12.30;99.90;;;;;;5114590;28;19938;-32
2023/10/16 10:19:58;;;;;;;;;;;12.30;99.90;;;;;;5095666;28;20334;-32
2023/10/16 10:22:27;;;;;;;;;;;12.40;99.90;;;;;;5111369;28;20018;-32
2023/10/16 10:25:09;;;;;;;;;;;12.40;99.90;;;;;;5114300;28;19969;-32
2023/10/16 10:27:41;;;;;;;;;;;12.40;99.90;;;;;;5096215;28;19923;-33
2023/10/16 10:30:11;;;;;;;;;;;12.40;99.90;;;;;;5113798;28;19934;-32
2023/10/16 10:32:41;;;;;;;;;;;12.50;99.90;;;;;;5086018;28;19967;-32
2023/10/16 10:35:22;;;;;;;;;;;12.50;99.90;;;;;;5094075;28;19977;-32
2023/10/16 10:37:51;;;;;;;;;;;12.50;99.90;;;;;;5096185;28;19930;-32
2023/10/16 10:40:21;;;;;;;;;;;12.50;99.90;;;;;;5095896;28;20034;-32
2023/10/16 10:42:53;;;;;;;;;;;12.50;99.90;;;;;;5092707;28;19924;-31
2023/10/16 10:45:33;;;;;;;;;;;12.60;99.90;;;;;;5095493;28;19966;-32
2023/10/16 10:48:06;;;;;;;;;;;12.60;99.90;;;;;;5092683;28;19945;-32
2023/10/16 10:50:33;;;;;;;;;;;12.70;99.90;;;;;;5075385;28;20010;-33
2023/10/16 10:53:03;;;;;;;;;;;12.70;99.90;;;;;;5081351;28;19953;-34
2023/10/16 10:55:29;;;;;;;;;;;12.70;99.90;;;;;;5091361;28;19946;-32
2023/10/16 10:58:01;;;;;;;;;;;12.90;99.90;;;;;;5100330;28;19964;-32
2023/10/16 11:00:49;;;;;;;;;;;13.00;99.90;;;;;;5074662;28;20017;-32
2023/10/16 11:03:33;;;;;;;;;;;13.10;99.90;;;;;;5082299;28;19924;-32
2023/10/16 11:05:59;;;;;;;;;;;13.10;99.90;;;;;;5094805;28;19924;-32
2023/10/16 11:08:31;;;;;;;;;;;13.20;99.90;;;;;;5113145;28;19969;-32
2023/10/16 11:11:03;;;;;;;;;;;13.30;99.90;;;;;;5112306;28;19946;-33
2023/10/16 11:13:31;;;;;;;;;;;13.30;99.90;;;;;;5095156;28;20417;-32
2023/10/16 11:16:00;;;;;;;;;;;13.40;99.90;;;;;;5094275;28;19925;-32
2023/10/16 11:18:28;;;;;;;;;;;13.40;99.90;;;;;;5095092;28;19931;-32
2023/10/16 11:20:58;;;;;;;;;;;13.50;99.90;;;;;;5094039;28;19995;-32
2023/10/16 11:23:25;;;;;;;;;;;13.60;99.90;;;;;;5094735;28;19972;-32
2023/10/16 11:25:52;;;;;;;;;;;13.60;99.90;;;;;;5091296;28;19958;-32
2023/10/16 11:28:21;;;;;;;;;;;13.60;99.90;;;;;;5088261;28;20291;-32
2023/10/16 11:30:53;;;;;;;;;;;13.60;99.90;;;;;;5093309;28;19930;-34
2023/10/16 11:33:27;;;;;;;;;;;13.50;99.90;;;;;;5094277;28;19924;-33
2023/10/16 11:36:02;;;;;;;;;;;13.50;99.90;;;;;;5111214;28;19930;-32
2023/10/16 11:38:29;;;;;;;;;;;13.40;99.90;;;;;;5094964;28;19927;-34
2023/10/16 11:40:56;;;;;;;;;;;13.40;99.90;;;;;;5090551;28;19924;-32
2023/10/16 11:43:22;;;;;;;;;;;13.40;99.90;;;;;;5092681;28;19938;-33
2023/10/16 11:45:53;;;;;;;;;;;13.30;99.90;;;;;;5094256;28;19932;-32
2023/10/16 11:48:28;;;;;;;;;;;13.40;99.90;;;;;;5094894;28;19923;-32
2023/10/16 11:51:05;;;;;;;;;;;13.40;99.90;;;;;;5110191;28;19932;-32
2023/10/16 11:53:32;;;;;;;;;;;13.40;99.90;;;;;;5092701;28;19947;-32
2023/10/16 11:55:58;;;;;;;;;;;13.30;99.90;;;;;;5094490;28;20005;-32
2023/10/16 11:58:25;;;;;;;;;;;13.40;99.90;;;;;;5094658;28;19954;-32
2023/10/16 12:00:54;;;;;;;;;;;13.50;99.90;;;;;;5092989;28;19923;-32
2023/10/16 12:03:23;;;;;;;;;;;13.50;99.90;;;;;;5112154;28;20011;-32
2023/10/16 12:05:50;;;;;;;;;;;13.50;99.90;;;;;;5094590;28;20015;-32
2023/10/16 12:08:18;;;;;;;;;;;13.60;99.90;;;;;;5094818;28;19924;-32
2023/10/16 12:10:46;;;;;;;;;;;13.60;99.90;;;;;;5112983;28;19927;-32
2023/10/16 12:13:13;;;;;;;;;;;13.70;99.90;;;;;;5097489;28;19930;-33
2023/10/16 12:15:41;;;;;;;;;;;13.70;99.90;;;;;;5096919;28;19934;-33
2023/10/16 12:18:09;;;;;;;;;;;13.70;99.90;;;;;;5096234;28;19946;-32
2023/10/16 12:20:37;;;;;;;;;;;13.70;99.90;;;;;;5097251;28;19923;-33
2023/10/16 12:23:05;;;;;;;;;;;13.70;99.90;;;;;;5116112;28;19927;-32
2023/10/16 12:25:32;;;;;;;;;;;13.70;99.90;;;;;;5098505;28;19971;-32
2023/10/16 12:27:59;;;;;;;;;;;13.70;99.90;;;;;;5098335;28;20007;-32
2023/10/16 12:30:27;;;;;;;;;;;13.70;99.90;;;;;;5098284;28;20451;-32
2023/10/16 12:32:55;;;;;;;;;;;13.70;99.90;;;;;;5098332;28;20024;-32
2023/10/16 12:35:25;;;;;;;;;;;13.70;99.90;;;;;;5115155;28;19931;-32
2023/10/16 12:37:55;;;;;;;;;;;13.80;99.90;;;;;;5116160;28;19962;-32
2023/10/16 12:40:28;;;;;;;;;;;13.80;99.90;;;;;;5098570;28;20398;-32
2023/10/16 12:42:55;;;;;;;;;;;13.90;99.90;;;;;;5098181;28;19969;-32
2023/10/16 12:45:23;;;;;;;;;;;13.90;99.90;;;;;;5097681;28;19970;-32
2023/10/16 12:47:51;;;;;;;;;;;13.90;99.90;;;;;;5115933;28;19936;-32
2023/10/16 12:50:17;;;;;;;;;;;14.00;99.90;;;;;;5097636;28;20466;-32
2023/10/16 12:52:45;;;;;;;;;;;14.10;99.90;;;;;;5097220;28;19924;-32
2023/10/16 12:55:12;;;;;;;;;;;14.20;99.90;;;;;;5097182;28;19984;-32
2023/10/16 12:57:41;;;;;;;;;;;14.20;99.90;;;;;;5096814;28;20008;-33
2023/10/16 13:00:15;;;;;;;;;;;14.30;99.90;;;;;;5095608;28;19924;-33
2023/10/16 13:02:43;;;;;;;;;;;14.30;99.90;;;;;;5096015;28;20633;-33
2023/10/16 13:05:13;;;;;;;;;;;14.40;99.90;;;;;;5114809;28;20310;-33
2023/10/16 13:07:41;;;;;;;;;;;14.40;99.90;;;;;;5095395;28;20021;-32
2023/10/16 13:10:10;;;;;;;;;;;14.40;99.90;;;;;;5092900;28;20257;-32
2023/10/16 13:12:39;;;;;;;;;;;14.40;99.90;;;;;;5096182;28;19988;-32
2023/10/16 13:15:08;;;;;;;;;;;14.30;99.90;;;;;;5093609;28;19924;-32
2023/10/16 13:17:35;;;;;;;;;;;14.30;99.90;;;;;;5086722;28;19924;-32
2023/10/16 13:20:04;;;;;;;;;;;14.20;99.90;;;;;;5096868;28;19962;-32
2023/10/16 13:22:31;;;;;;;;;;;14.20;99.90;;;;;;5074346;28;20003;-32
2023/10/16 13:24:59;;;;;;;;;;;14.20;99.90;;;;;;5076960;28;20048;-32
2023/10/16 13:27:27;;;;;;;;;;;14.20;99.90;;;;;;5096703;28;19932;-33
2023/10/16 13:29:54;;;;;;;;;;;14.10;99.90;;;;;;5114801;28;19999;-32
2023/10/16 13:32:21;;;;;;;;;;;14.10;99.90;;;;;;5109655;28;19928;-32
2023/10/16 13:34:47;;;;;;;;;;;14.10;99.90;;;;;;5094960;28;19934;-32
2023/10/16 13:37:14;;;;;;;;;;;14.10;99.90;;;;;;5096014;28;19939;-33
2023/10/16 13:39:41;;;;;;;;;;;14.10;99.90;;;;;;5096714;28;19968;-32
2023/10/16 13:42:09;;;;;;;;;;;14.10;99.90;;;;;;5114192;28;19978;-32
2023/10/16 13:44:37;;;;;;;;;;;14.20;99.90;;;;;;5107587;28;20049;-34
2023/10/16 13:47:05;;;;;;;;;;;14.10;99.90;;;;;;5114416;28;20256;-32
2023/10/16 13:49:31;;;;;;;;;;;14.20;99.90;;;;;;5096377;28;19924;-32
2023/10/16 13:51:58;;;;;;;;;;;14.20;99.90;;;;;;5110578;28;20464;-32
2023/10/16 13:54:25;;;;;;;;;;;14.20;99.90;;;;;;5095270;28;19924;-32
2023/10/16 13:56:51;;;;;;;;;;;14.20;99.90;;;;;;5113120;28;19971;-33
2023/10/16 13:59:19;;;;;;;;;;;14.10;99.90;;;;;;5113546;28;19927;-32
2023/10/16 14:01:47;;;;;;;;;;;14.20;99.90;;;;;;5085583;28;21950;-32
2023/10/16 14:04:15;;;;;;;;;;;14.20;99.90;;;;;;5109508;28;20375;-32
2023/10/16 14:06:41;;;;;;;;;;;14.20;99.90;;;;;;5095281;28;19969;-32
2023/10/16 14:09:18;;;;;;;;;;;14.30;99.90;;;;;;5091362;28;19958;-32
2023/10/16 14:11:48;;;;;;;;;;;14.30;99.90;;;;;;5097798;28;19928;-32
2023/10/16 14:14:18;;;;;;;;;;;14.30;99.90;;;;;;5096314;28;19970;-31
2023/10/16 14:16:49;;;;;;;;;;;14.30;99.90;;;;;;5095623;28;19988;-32
2023/10/16 14:19:17;;;;;;;;;;;14.30;99.90;;;;;;5114470;28;19924;-32
2023/10/16 14:21:44;;;;;;;;;;;14.30;99.90;;;;;;5103976;28;20010;-32
2023/10/16 14:24:17;;;;;;;;;;;14.30;99.90;;;;;;5088296;28;20414;-32
2023/10/16 14:26:44;;;;;;;;;;;14.30;99.90;;;;;;5090757;28;20395;-32
2023/10/16 14:29:11;;;;;;;;;;;14.20;99.90;;;;;;5093212;28;19924;-32
2023/10/16 14:31:38;;;;;;;;;;;14.20;99.90;;;;;;5092919;28;20016;-32
2023/10/16 14:34:06;;;;;;;;;;;14.20;99.90;;;;;;5107508;28;19970;-32
2023/10/16 14:36:33;;;;;;;;;;;14.20;99.90;;;;;;5109798;28;20365;-32
2023/10/16 14:39:04;;;;;;;;;;;14.20;99.90;;;;;;5102342;28;19928;-33
2023/10/16 14:41:31;;;;;;;;;;;14.20;99.90;;;;;;5090545;28;20409;-31
2023/10/16 14:43:58;;;;;;;;;;;14.20;99.90;;;;;;5094283;28;19985;-32
2023/10/16 14:46:25;;;;;;;;;;;14.20;99.90;;;;;;5094515;28;20007;-32
2023/10/16 14:48:53;;;;;;;;;;;14.20;99.90;;;;;;5113656;28;19931;-33
2023/10/16 14:51:22;;;;;;;;;;;14.20;99.90;;;;;;5112801;28;20315;-32
2023/10/16 14:53:49;;;;;;;;;;;14.10;99.90;;;;;;5095492;28;19950;-32
2023/10/16 14:56:18;;;;;;;;;;;14.10;99.90;;;;;;5112331;28;20459;-33
2023/10/16 14:58:45;;;;;;;;;;;14.10;99.90;;;;;;5112097;28;19923;-32
2023/10/16 15:01:15;;;;;;;;;;;14.10;99.90;;;;;;5087178;28;20014;-32
2023/10/16 15:03:43;;;;;;;;;;;14.10;99.90;;;;;;5093352;28;19992;-32
2023/10/16 15:06:11;;;;;;;;;;;14.00;99.90;;;;;;5093991;28;19930;-31
2023/10/16 15:08:39;;;;;;;;;;;14.00;99.90;;;;;;5083852;28;19924;-32
2023/10/16 15:11:10;;;;;;;;;;;14.00;99.90;;;;;;5092646;28;19958;-32
2023/10/16 15:13:37;;;;;;;;;;;13.90;99.90;;;;;;5113267;28;20009;-32
2023/10/16 15:16:06;;;;;;;;;;;13.90;99.90;;;;;;5095378;28;20387;-32
2023/10/16 15:18:32;;;;;;;;;;;13.80;99.90;;;;;;5113324;28;19987;-32
2023/10/16 15:21:00;;;;;;;;;;;13.80;99.90;;;;;;5095051;28;19987;-31
2023/10/16 15:23:27;;;;;;;;;;;13.80;99.90;;;;;;5093337;28;19950;-32
2023/10/16 15:25:57;;;;;;;;;;;13.70;99.90;;;;;;5094629;28;20333;-33
2023/10/16 15:28:23;;;;;;;;;;;13.70;99.90;;;;;;5094243;28;20010;-32
2023/10/16 15:30:50;;;;;;;;;;;13.70;99.90;;;;;;5106700;28;19959;-32
2023/10/16 15:33:17;;;;;;;;;;;13.60;99.90;;;;;;5095090;28;19962;-32
2023/10/16 15:35:45;;;;;;;;;;;13.60;99.90;;;;;;5092070;28;20349;-34
2023/10/16 15:38:12;;;;;;;;;;;13.50;99.90;;;;;;5110186;28;20083;-33
2023/10/16 15:40:45;;;;;;;;;;;13.50;99.90;;;;;;5111939;28;19931;-32
2023/10/16 15:43:15;;;;;;;;;;;13.40;99.90;;;;;;5094135;28;19924;-32
2023/10/16 15:45:42;;;;;;;;;;;13.30;99.90;;;;;;5112402;28;19930;-32
2023/10/16 15:48:09;;;;;;;;;;;13.30;99.90;;;;;;5094415;28;19977;-33
2023/10/16 15:50:36;;;;;;;;;;;13.30;99.90;;;;;;5112752;28;19977;-32
2023/10/16 15:53:04;;;;;;;;;;;13.20;99.90;;;;;;5112923;28;20009;-32
2023/10/16 15:55:31;;;;;;;;;;;13.20;99.90;;;;;;5112927;28;19973;-32